Time;durP1;ratioP1;P1;durP2;ratioP2;P2;SDS_P1;SDS_P2;PMS_P1;PMS_P2;Temp;Humidity;BMP_temperature;BMP_pressure;BME280_temperature;BME280_humidity;BME280_pressure;Samples;Min_cycle;Max_cycle;Signal;HPM_P1;HPM_P2
2022/07/24 00:00:05;;;;;;;5.90;4.00;;;;;;;24.74;nan;-24502.97;4979247;28;20691;-67
2022/07/24 00:02:31;;;;;;;7.53;4.10;;;;;;;24.81;nan;-24504.91;4978967;28;20200;-66
2022/07/24 00:04:57;;;;;;;6.00;3.70;;;;;;;24.88;nan;-24506.81;4976279;28;20642;-65
2022/07/24 00:07:23;;;;;;;5.13;3.28;;;;;;;24.65;nan;-24500.63;4979399;28;20183;-67
2022/07/24 00:09:48;;;;;;;6.78;3.38;;;;;;;24.88;nan;-24506.97;4978562;28;20195;-66
2022/07/24 00:12:14;;;;;;;4.18;3.08;;;;;;;24.91;nan;-24507.66;4978449;28;20228;-64
2022/07/24 00:14:39;;;;;;;7.28;4.22;;;;;;;24.68;nan;-24501.31;4980240;28;20182;-64
2022/07/24 00:17:04;;;;;;;5.03;3.22;;;;;;;24.90;nan;-24507.53;4979104;28;20192;-66
2022/07/24 00:19:30;;;;;;;4.80;3.38;;;;;;;25.00;nan;-24510.28;4980716;28;20180;-66
2022/07/24 00:21:57;;;;;;;7.05;3.50;;;;;;;24.98;nan;-24509.72;4976323;28;20213;-66
2022/07/24 00:24:22;;;;;;;6.18;3.40;;;;;;;24.91;nan;-24507.78;4980604;28;20184;-64
2022/07/24 00:26:48;;;;;;;4.97;3.13;;;;;;;24.87;nan;-24506.69;4978400;28;20185;-65
2022/07/24 00:29:13;;;;;;;4.60;3.13;;;;;;;24.93;nan;-24508.34;4980755;28;20188;-64
2022/07/24 00:31:39;;;;;;;5.28;3.17;;;;;;;24.72;nan;-24502.56;4978399;28;20264;-67
2022/07/24 00:34:04;;;;;;;5.53;3.80;;;;;;;24.73;nan;-24502.84;4978260;28;20239;-65
2022/07/24 00:36:30;;;;;;;4.25;3.00;;;;;;;24.85;nan;-24506.00;4978308;28;20242;-65
2022/07/24 00:38:55;;;;;;;5.63;3.60;;;;;;;24.92;nan;-24507.94;4976753;28;20688;-66
2022/07/24 00:41:21;;;;;;;4.10;2.65;;;;;;;24.90;nan;-24507.38;4979843;28;20631;-65
2022/07/24 00:44:19;;;;;;;5.82;3.22;;;;;;;24.79;nan;-24504.34;4981136;28;20610;-66
2022/07/24 00:46:45;;;;;;;6.68;3.30;;;;;;;24.55;nan;-24497.88;4984848;28;20658;-66
2022/07/24 00:49:13;;;;;;;6.18;3.30;;;;;;;24.56;nan;-24498.16;4983042;28;20193;-65
2022/07/24 00:51:44;;;;;;;5.18;2.97;;;;;;;24.85;nan;-24506.00;4978243;28;20201;-68
2022/07/24 00:54:12;;;;;;;6.15;3.60;;;;;;;24.67;nan;-24501.19;4977764;28;20303;-66
2022/07/24 00:56:39;;;;;;;6.60;3.63;;;;;;;24.83;nan;-24505.59;4975821;28;20180;-65
2022/07/24 00:59:04;;;;;;;6.80;3.80;;;;;;;24.61;nan;-24499.53;4979174;28;20188;-64
2022/07/24 01:01:30;;;;;;;9.27;3.53;;;;;;;24.81;nan;-24504.91;4977115;28;20266;-65
2022/07/24 01:03:56;;;;;;;5.93;3.80;;;;;;;24.80;nan;-24504.63;4978206;28;20768;-65
2022/07/24 01:06:22;;;;;;;7.32;3.63;;;;;;;24.84;nan;-24505.88;4975684;28;20267;-66
2022/07/24 01:08:48;;;;;;;8.50;3.75;;;;;;;24.80;nan;-24504.63;4978033;28;20185;-65
2022/07/24 01:11:14;;;;;;;8.15;3.95;;;;;;;24.57;nan;-24498.56;4979876;28;20208;-65
2022/07/24 01:13:40;;;;;;;8.27;4.82;;;;;;;24.76;nan;-24503.66;4977761;28;20232;-65
2022/07/24 01:16:06;;;;;;;8.32;5.05;;;;;;;24.75;nan;-24503.25;4976344;28;20177;-65
2022/07/24 01:18:32;;;;;;;9.25;4.05;;;;;;;24.55;nan;-24498.00;4978553;28;20190;-65
2022/07/24 01:20:58;;;;;;;7.15;4.18;;;;;;;24.48;nan;-24496.09;4977644;28;20264;-65
2022/07/24 01:23:24;;;;;;;6.72;4.18;;;;;;;24.65;nan;-24500.75;4974020;28;20573;-65
2022/07/24 01:25:50;;;;;;;6.82;4.03;;;;;;;24.55;nan;-24498.00;4975181;28;20193;-64
2022/07/24 01:28:16;;;;;;;7.07;3.95;;;;;;;24.36;nan;-24492.78;4979522;28;20216;-63
2022/07/24 01:30:41;;;;;;;7.05;3.90;;;;;;;24.53;nan;-24497.47;4977406;28;20201;-65
2022/07/24 01:33:07;;;;;;;8.10;4.00;;;;;;;24.28;nan;-24490.56;4979528;28;20639;-64
2022/07/24 01:35:32;;;;;;;5.68;3.60;;;;;;;24.21;nan;-24488.63;4978929;28;20177;-64
2022/07/24 01:37:58;;;;;;;5.80;4.03;;;;;;;24.48;nan;-24496.09;4977802;28;20173;-65
2022/07/24 01:40:23;;;;;;;5.32;3.50;;;;;;;24.50;nan;-24496.63;4976525;28;20232;-65
2022/07/24 01:42:49;;;;;;;5.45;3.53;;;;;;;24.20;nan;-24488.38;4979171;28;20676;-63
2022/07/24 01:45:15;;;;;;;6.10;3.50;;;;;;;24.23;nan;-24489.06;4981576;28;20255;-66
2022/07/24 01:47:43;;;;;;;5.63;3.33;;;;;;;24.45;nan;-24495.13;4974761;28;20193;-64
2022/07/24 01:50:12;;;;;;;6.40;3.40;;;;;;;22.56;nan;-24443.47;4974427;28;20204;-64
2022/07/24 01:52:38;;;;;;;4.82;3.05;;;;;;;24.34;nan;-24492.09;4976243;28;20200;-66
2022/07/24 01:55:05;;;;;;;5.50;3.10;;;;;;;24.36;nan;-24492.78;4975915;28;20785;-65
2022/07/24 01:57:31;;;;;;;6.30;3.40;;;;;;;24.19;nan;-24488.22;4976967;28;20192;-66
2022/07/24 01:59:58;;;;;;;3.70;2.90;;;;;;;24.39;nan;-24493.47;4977673;28;20200;-67
2022/07/24 02:02:23;;;;;;;5.25;3.38;;;;;;;24.42;nan;-24494.44;4981018;28;20184;-67
2022/07/24 02:04:49;;;;;;;5.78;3.30;;;;;;;23.99;nan;-24482.56;4977697;28;20189;-66
2022/07/24 02:07:14;;;;;;;4.15;2.70;;;;;;;24.31;nan;-24491.25;4979688;28;20608;-66
2022/07/24 02:09:40;;;;;;;5.07;3.05;;;;;;;24.31;nan;-24491.25;4977301;28;20181;-66
2022/07/24 02:12:05;;;;;;;5.47;2.92;;;;;;;24.11;nan;-24485.88;4977050;28;20747;-65
2022/07/24 02:14:31;;;;;;;4.10;2.80;;;;;;;24.00;nan;-24482.97;4976978;28;20579;-66
2022/07/24 02:16:57;;;;;;;5.30;3.78;;;;;;;24.03;nan;-24483.66;4975064;28;20220;-66
2022/07/24 02:19:24;;;;;;;4.35;3.08;;;;;;;24.23;nan;-24489.06;4979198;28;20187;-67
2022/07/24 02:21:49;;;;;;;4.13;2.97;;;;;;;24.13;nan;-24486.56;4977552;28;20664;-66
2022/07/24 02:24:15;;;;;;;4.78;3.25;;;;;;;24.08;nan;-24485.19;4977042;28;20182;-65
2022/07/24 02:26:41;;;;;;;4.32;2.65;;;;;;;23.97;nan;-24482.00;4977339;28;20188;-65
2022/07/24 02:29:06;;;;;;;4.65;3.20;;;;;;;24.20;nan;-24488.38;4981205;28;20180;-65
2022/07/24 02:31:32;;;;;;;5.05;3.03;;;;;;;24.20;nan;-24488.50;4979844;28;20208;-65
2022/07/24 02:33:57;;;;;;;5.95;2.80;;;;;;;24.25;nan;-24489.59;4983340;28;20174;-64
2022/07/24 02:36:23;;;;;;;5.05;2.90;;;;;;;23.89;nan;-24479.81;4983207;28;20645;-64
2022/07/24 02:38:49;;;;;;;5.90;2.90;;;;;;;23.77;nan;-24476.78;4980610;28;20228;-65
2022/07/24 02:41:14;;;;;;;4.82;3.03;;;;;;;23.34;nan;-24465.03;4982710;28;20185;-65
2022/07/24 02:43:39;;;;;;;5.00;3.03;;;;;;;24.02;nan;-24483.53;4981071;28;20673;-66
2022/07/24 02:46:05;;;;;;;6.72;3.63;;;;;;;23.99;nan;-24482.56;4981667;28;20664;-64
2022/07/24 02:48:31;;;;;;;7.55;3.55;;;;;;;23.71;nan;-24474.97;4981691;28;20208;-65
2022/07/24 02:50:56;;;;;;;6.10;3.55;;;;;;;23.49;nan;-24469.03;4978116;28;20654;-65
2022/07/24 02:53:22;;;;;;;6.00;3.78;;;;;;;23.29;nan;-24463.50;4982315;28;20251;-66
2022/07/24 02:55:47;;;;;;;6.78;4.10;;;;;;;23.43;nan;-24467.25;4980072;28;20178;-65
2022/07/24 02:58:13;;;;;;;5.50;3.83;;;;;;;23.27;nan;-24462.97;4982442;28;20535;-65
2022/07/24 03:00:39;;;;;;;8.57;3.85;;;;;;;23.08;nan;-24457.72;4980167;28;20166;-66
2022/07/24 03:03:04;;;;;;;7.05;4.32;;;;;;;23.01;nan;-24455.78;4981282;28;20185;-65
2022/07/24 03:05:30;;;;;;;6.70;4.10;;;;;;;22.71;nan;-24447.63;4981613;28;20614;-64
2022/07/24 03:07:55;;;;;;;7.55;4.32;;;;;;;22.71;nan;-24447.63;4979940;28;20618;-64
2022/07/24 03:10:21;;;;;;;8.45;4.50;;;;;;;22.59;nan;-24444.31;4982103;28;20188;-64
2022/07/24 03:12:46;;;;;;;5.70;3.90;;;;;;;22.52;nan;-24442.38;4979930;28;20295;-65
2022/07/24 03:15:13;;;;;;;5.55;3.85;;;;;;;22.31;nan;-24436.69;4980101;28;20224;-65
2022/07/24 03:17:39;;;;;;;6.90;4.05;;;;;;;22.19;nan;-24433.50;4979935;28;20228;-65
2022/07/24 03:20:05;;;;;;;8.13;4.20;;;;;;;22.17;nan;-24432.81;4980766;28;20174;-65
2022/07/24 03:22:30;;;;;;;7.65;4.35;;;;;;;22.59;nan;-24444.44;4979456;28;20277;-65
2022/07/24 03:24:56;;;;;;;8.35;4.32;;;;;;;22.68;nan;-24446.94;4979531;28;20189;-66
2022/07/24 03:27:21;;;;;;;6.15;3.70;;;;;;;23.12;nan;-24458.81;4979464;28;20230;-65
2022/07/24 03:29:47;;;;;;;7.20;4.55;;;;;;;23.40;nan;-24466.56;4979574;28;20213;-64
2022/07/24 03:32:12;;;;;;;7.97;4.55;;;;;;;23.49;nan;-24469.03;4981833;28;20573;-64
2022/07/24 03:34:38;;;;;;;8.10;4.40;;;;;;;23.97;nan;-24482.00;4979580;28;20209;-66
2022/07/24 03:37:03;;;;;;;10.05;4.45;;;;;;;24.59;nan;-24498.97;4975950;28;20221;-67
2022/07/24 03:39:29;;;;;;;7.80;4.50;;;;;;;24.62;nan;-24499.81;4979332;28;20225;-66
2022/07/24 03:41:54;;;;;;;7.40;3.95;;;;;;;24.97;nan;-24509.31;4978990;28;20181;-66
2022/07/24 03:44:19;;;;;;;13.57;5.03;;;;;;;25.44;nan;-24522.25;4981436;28;20172;-67
2022/07/24 03:46:45;;;;;;;7.18;4.18;;;;;;;26.05;nan;-24538.59;4978932;28;20690;-64
2022/07/24 03:49:10;;;;;;;9.65;4.38;;;;;;;26.70;nan;-24556.31;4978870;28;20181;-65
2022/07/24 03:51:36;;;;;;;6.38;4.03;;;;;;;26.98;nan;-24563.88;4979034;28;20752;-65
2022/07/24 03:54:02;;;;;;;9.02;4.55;;;;;;;27.67;nan;-24582.81;4978836;28;21871;-65
2022/07/24 03:56:28;;;;;;;9.15;4.30;;;;;;;27.79;nan;-24585.94;4979887;28;20668;-65
2022/07/24 03:58:54;;;;;;;7.65;4.80;;;;;;;28.51;nan;-24605.53;4978475;28;20279;-65
2022/07/24 04:01:21;;;;;;;6.55;4.45;;;;;;;28.90;nan;-24616.06;4978273;28;20231;-67
2022/07/24 04:03:46;;;;;;;8.02;4.43;;;;;;;29.11;nan;-24621.53;4977467;28;20185;-66
2022/07/24 04:06:12;;;;;;;7.53;4.93;;;;;;;30.03;nan;-24646.50;4976235;28;20189;-65
2022/07/24 04:08:38;;;;;;;7.05;4.40;;;;;;;30.24;nan;-24652.22;4978713;28;20184;-66
2022/07/24 04:11:03;;;;;;;7.72;4.47;;;;;;;30.71;nan;-24664.91;4977257;28;20193;-66
2022/07/24 04:13:30;;;;;;;10.77;4.88;;;;;;;30.99;nan;-24672.38;4976349;28;20550;-65
2022/07/24 04:15:57;;;;;;;9.63;5.00;;;;;;;29.63;nan;-24635.72;4976739;28;20296;-64
2022/07/24 04:18:23;;;;;;;9.13;4.93;;;;;;;31.71;nan;-24691.56;4976703;28;20184;-66
2022/07/24 04:20:49;;;;;;;10.63;4.90;;;;;;;31.74;nan;-24692.50;4991752;28;20185;-65
2022/07/24 04:23:15;;;;;;;7.38;4.75;;;;;;;32.13;nan;-24702.84;4978467;28;20658;-65
2022/07/24 04:25:40;;;;;;;8.48;4.90;;;;;;;32.28;nan;-24706.91;4976619;28;20178;-65
2022/07/24 04:28:06;;;;;;;8.50;5.03;;;;;;;32.62;nan;-24716.13;4977410;28;20276;-64
2022/07/24 04:30:32;;;;;;;8.63;5.63;;;;;;;32.83;nan;-24721.84;4976588;28;20190;-67
2022/07/24 04:32:57;;;;;;;8.18;5.15;;;;;;;32.74;nan;-24719.25;4979009;28;20200;-66
2022/07/24 04:35:23;;;;;;;9.48;5.13;;;;;;;32.69;nan;-24718.03;4977697;28;20206;-67
2022/07/24 04:37:49;;;;;;;8.02;4.90;;;;;;;32.80;nan;-24721.03;4978522;28;20184;-65
2022/07/24 04:40:14;;;;;;;8.50;5.28;;;;;;;32.91;nan;-24723.88;4975918;28;20224;-66
2022/07/24 04:42:40;;;;;;;8.05;5.03;;;;;;;32.96;nan;-24725.22;4976138;28;20702;-65
2022/07/24 04:45:08;;;;;;;11.73;5.13;;;;;;;31.54;nan;-24687.06;4973683;28;20184;-66
2022/07/24 04:47:35;;;;;;;10.00;4.97;;;;;;;32.97;nan;-24725.50;4976101;28;20320;-66
2022/07/24 04:50:01;;;;;;;10.95;5.63;;;;;;;33.01;nan;-24726.44;4975362;28;20192;-66
2022/07/24 04:52:27;;;;;;;8.95;4.72;;;;;;;32.88;nan;-24723.19;4976442;28;20226;-66
2022/07/24 04:54:52;;;;;;;10.90;5.22;;;;;;;32.95;nan;-24724.97;4976497;28;20180;-66
2022/07/24 04:57:17;;;;;;;7.95;4.88;;;;;;;32.67;nan;-24717.50;4976087;28;20189;-66
2022/07/24 04:59:43;;;;;;;8.70;5.13;;;;;;;32.48;nan;-24712.34;4976589;28;20640;-65
2022/07/24 05:02:08;;;;;;;9.52;5.60;;;;;;;31.79;nan;-24693.75;4976165;28;20629;-65
2022/07/24 05:04:34;;;;;;;8.27;5.00;;;;;;;31.73;nan;-24692.09;4977041;28;20648;-65
2022/07/24 05:07:00;;;;;;;10.35;5.35;;;;;;;31.75;nan;-24692.66;4975273;28;20214;-66
2022/07/24 05:09:27;;;;;;;7.93;5.13;;;;;;;31.54;nan;-24687.06;4975962;28;20200;-66
2022/07/24 05:11:53;;;;;;;7.78;5.03;;;;;;;31.29;nan;-24680.41;4976731;28;20216;-66
2022/07/24 05:14:18;;;;;;;9.05;5.40;;;;;;;31.18;nan;-24677.41;4977353;28;20548;-66
2022/07/24 05:16:44;;;;;;;8.48;4.88;;;;;;;31.08;nan;-24674.84;4978170;28;20636;-66
2022/07/24 05:19:09;;;;;;;9.85;5.38;;;;;;;30.54;nan;-24660.25;4978706;28;20185;-66
2022/07/24 05:21:35;;;;;;;9.48;5.53;;;;;;;30.53;nan;-24660.00;4977852;28;20244;-66
2022/07/24 05:24:02;;;;;;;9.88;5.18;;;;;;;30.95;nan;-24671.28;4978788;28;20555;-65
2022/07/24 05:26:31;;;;;;;11.73;5.20;;;;;;;31.02;nan;-24673.06;4979074;28;20659;-66
2022/07/24 05:29:05;;;;;;;8.52;4.72;;;;;;;31.16;nan;-24676.75;4977739;28;20181;-65
2022/07/24 05:31:31;;;;;;;8.32;5.32;;;;;;;31.08;nan;-24674.69;4979228;28;20612;-66
2022/07/24 05:33:58;;;;;;;8.25;5.13;;;;;;;30.91;nan;-24670.06;4975381;28;20951;-66
2022/07/24 05:36:24;;;;;;;10.93;5.32;;;;;;;30.77;nan;-24666.25;4976775;28;20559;-65
2022/07/24 05:38:49;;;;;;;7.97;4.88;;;;;;;30.81;nan;-24667.47;4977449;28;20227;-66
2022/07/24 05:41:15;;;;;;;7.40;4.88;;;;;;;30.21;nan;-24651.28;4976339;28;20199;-66
2022/07/24 05:43:40;;;;;;;8.57;4.82;;;;;;;30.12;nan;-24648.94;4975830;28;20223;-66
2022/07/24 05:46:06;;;;;;;7.65;4.88;;;;;;;29.62;nan;-24635.31;4978405;28;20195;-66
2022/07/24 05:48:32;;;;;;;7.20;4.70;;;;;;;29.55;nan;-24633.41;4978487;28;20562;-64
2022/07/24 05:50:57;;;;;;;6.72;4.30;;;;;;;26.88;nan;-24561.28;4977425;28;20260;-65
2022/07/24 05:53:23;;;;;;;9.43;4.22;;;;;;;29.51;nan;-24632.31;4979168;28;20176;-65
2022/07/24 05:55:49;;;;;;;10.55;4.97;;;;;;;29.43;nan;-24630.25;4971935;28;20184;-65
2022/07/24 05:58:15;;;;;;;6.53;4.05;;;;;;;29.14;nan;-24622.47;4971383;28;20195;-66
2022/07/24 06:00:40;;;;;;;7.63;4.50;;;;;;;29.22;nan;-24624.66;4981263;28;20185;-66
2022/07/24 06:03:06;;;;;;;8.98;4.88;;;;;;;29.27;nan;-24626.03;4979655;28;20674;-64
2022/07/24 06:05:32;;;;;;;8.98;5.10;;;;;;;29.35;nan;-24628.06;4982503;28;20263;-65
2022/07/24 06:07:57;;;;;;;8.65;4.55;;;;;;;29.42;nan;-24630.00;4981194;28;20181;-65
2022/07/24 06:10:23;;;;;;;9.93;4.80;;;;;;;29.44;nan;-24630.53;4984733;28;20180;-66
2022/07/24 06:12:48;;;;;;;12.88;4.50;;;;;;;;;;4981263;28;20599;-66
2022/07/24 06:15:13;;;;;;;8.50;4.50;;;;;;;29.51;nan;-24632.44;4982843;28;20644;-66
2022/07/24 06:17:40;;;;;;;8.25;4.80;;;;;;;29.68;nan;-24637.09;4986589;28;20649;-65
2022/07/24 06:20:06;;;;;;;8.30;4.93;;;;;;;29.51;nan;-24632.44;4981818;28;20264;-65
2022/07/24 06:22:32;;;;;;;9.35;5.28;;;;;;;29.77;nan;-24639.41;4981807;28;20181;-65
2022/07/24 06:24:57;;;;;;;9.15;4.43;;;;;;;29.60;nan;-24634.91;4980900;28;20177;-65
2022/07/24 06:27:23;;;;;;;7.60;4.80;;;;;;;29.92;nan;-24643.38;4982719;28;20272;-65
2022/07/24 06:29:49;;;;;;;6.28;4.43;;;;;;;30.04;nan;-24646.63;4978911;28;20272;-65
2022/07/24 06:32:14;;;;;;;8.15;5.47;;;;;;;29.95;nan;-24644.31;4983317;28;20775;-66
2022/07/24 06:34:39;;;;;;;10.70;4.38;;;;;;;30.10;nan;-24648.28;4979157;28;20180;-66
2022/07/24 06:37:05;;;;;;;9.90;4.72;;;;;;;29.64;nan;-24635.84;4981755;28;20641;-66
2022/07/24 06:39:30;;;;;;;7.80;4.55;;;;;;;29.80;nan;-24640.22;4980630;28;20220;-65
2022/07/24 06:41:56;;;;;;;9.35;4.80;;;;;;;29.98;nan;-24645.00;4980969;28;20197;-64
2022/07/24 06:44:22;;;;;;;9.20;4.97;;;;;;;30.24;nan;-24652.22;4982992;28;20518;-64
2022/07/24 06:46:49;;;;;;;7.13;4.53;;;;;;;29.90;nan;-24642.81;4981568;28;20212;-64
2022/07/24 06:49:14;;;;;;;12.18;5.00;;;;;;;30.11;nan;-24648.53;4981163;28;20189;-65
2022/07/24 06:51:40;;;;;;;8.77;4.65;;;;;;;30.22;nan;-24651.69;4978547;28;20677;-65
2022/07/24 06:54:06;;;;;;;7.72;4.95;;;;;;;30.24;nan;-24652.09;4979223;28;20622;-66
2022/07/24 06:56:31;;;;;;;8.25;5.05;;;;;;;30.36;nan;-24655.34;4981404;28;20279;-66
2022/07/24 06:58:58;;;;;;;7.43;4.88;;;;;;;25.79;nan;-24531.59;4979928;28;20183;-65
2022/07/24 07:01:25;;;;;;;10.32;4.70;;;;;;;30.54;nan;-24660.25;4978958;28;20680;-66
2022/07/24 07:03:52;;;;;;;8.38;5.28;;;;;;;30.89;nan;-24669.53;4976091;28;20205;-66
2022/07/24 07:06:18;;;;;;;8.38;5.22;;;;;;;30.87;nan;-24669.13;4979020;28;20706;-66
2022/07/24 07:08:46;;;;;;;7.68;4.85;;;;;;;30.71;nan;-24664.75;4978683;28;20280;-65
2022/07/24 07:11:12;;;;;;;8.15;4.75;;;;;;;30.49;nan;-24658.91;4980760;28;20675;-65
2022/07/24 07:13:39;;;;;;;7.03;4.60;;;;;;;30.50;nan;-24659.19;4977744;28;20192;-65
2022/07/24 07:16:05;;;;;;;7.43;4.32;;;;;;;30.69;nan;-24664.22;4978691;28;20235;-66
2022/07/24 07:18:36;;;;;;;8.38;4.45;;;;;;;30.81;nan;-24667.47;4975783;28;20572;-64
2022/07/24 07:21:12;;;;;;;6.38;4.10;;;;;;;30.48;nan;-24658.63;4972735;28;20181;-65
2022/07/24 07:23:37;;;;;;;6.03;4.20;;;;;;;30.81;nan;-24667.34;4975487;28;20208;-66
2022/07/24 07:26:03;;;;;;;6.65;4.10;;;;;;;30.92;nan;-24670.47;4974783;28;20180;-66
2022/07/24 07:28:29;;;;;;;7.20;4.22;;;;;;;30.98;nan;-24671.97;4973699;28;20185;-65
2022/07/24 07:30:54;;;;;;;6.28;4.30;;;;;;;31.01;nan;-24672.78;4975029;28;20176;-65
2022/07/24 07:33:20;;;;;;;8.02;4.55;;;;;;;30.75;nan;-24665.72;4974628;28;20231;-65
2022/07/24 07:35:46;;;;;;;7.10;4.60;;;;;;;30.94;nan;-24671.03;4979318;28;20177;-65
2022/07/24 07:38:11;;;;;;;8.00;4.38;;;;;;;31.36;nan;-24682.19;4977743;28;20188;-65
2022/07/24 07:40:36;;;;;;;8.63;4.60;;;;;;;31.31;nan;-24680.81;4977794;28;20192;-66
2022/07/24 07:43:02;;;;;;;7.05;4.50;;;;;;;30.96;nan;-24671.44;4975202;28;20185;-66
2022/07/24 07:45:27;;;;;;;8.18;4.47;;;;;;;31.51;nan;-24686.25;4975045;28;20176;-65
2022/07/24 07:47:53;;;;;;;8.35;4.40;;;;;;;31.24;nan;-24678.91;4977450;28;20180;-65
2022/07/24 07:50:18;;;;;;;6.35;4.10;;;;;;;30.91;nan;-24670.06;4973868;28;20189;-64
2022/07/24 07:52:44;;;;;;;8.75;4.30;;;;;;;31.26;nan;-24679.59;4974905;28;20544;-64
2022/07/24 07:55:10;;;;;;;6.55;4.40;;;;;;;31.07;nan;-24674.44;4977700;28;20247;-65
2022/07/24 07:57:36;;;;;;;8.93;5.15;;;;;;;30.37;nan;-24655.63;4975685;28;20243;-68
2022/07/24 08:00:05;;;;;;;7.63;4.63;;;;;;;31.58;nan;-24688.31;4974744;28;20177;-65
2022/07/24 08:02:30;;;;;;;7.18;4.53;;;;;;;31.82;nan;-24694.56;4974703;28;20176;-67
2022/07/24 08:04:56;;;;;;;7.40;4.82;;;;;;;31.21;nan;-24678.25;4977828;28;20165;-66
2022/07/24 08:07:21;;;;;;;8.18;4.80;;;;;;;31.03;nan;-24673.34;4978415;28;20203;-64
2022/07/24 08:09:46;;;;;;;11.77;6.05;;;;;;;31.58;nan;-24688.03;4975020;28;20619;-64
2022/07/24 08:12:12;;;;;;;9.20;5.13;;;;;;;31.97;nan;-24698.63;4975757;28;20200;-64
2022/07/24 08:14:38;;;;;;;8.43;5.22;;;;;;;32.07;nan;-24701.34;4976650;28;20188;-63
2022/07/24 08:17:04;;;;;;;7.65;4.72;;;;;;;31.09;nan;-24674.97;4975615;28;20183;-67
2022/07/24 08:19:29;;;;;;;11.18;5.50;;;;;;;31.90;nan;-24696.72;4968953;28;20188;-65
2022/07/24 08:21:55;;;;;;;7.88;4.90;;;;;;;32.09;nan;-24701.88;4977626;28;20574;-63
2022/07/24 08:24:20;;;;;;;8.00;5.10;;;;;;;32.45;nan;-24711.53;4977928;28;20180;-63
2022/07/24 08:26:50;;;;;;;8.93;5.00;;;;;;;32.77;nan;-24720.06;4973542;28;20186;-64
2022/07/24 08:29:16;;;;;;;9.70;5.05;;;;;;;32.65;nan;-24716.81;4978416;28;20263;-64
2022/07/24 08:31:42;;;;;;;6.53;4.25;;;;;;;32.77;nan;-24720.22;4976387;28;20200;-66
2022/07/24 08:34:08;;;;;;;7.78;4.50;;;;;;;32.55;nan;-24714.09;4973621;28;20644;-65
2022/07/24 08:36:34;;;;;;;8.27;4.75;;;;;;;25.27;nan;-24517.56;4974297;28;20181;-65
2022/07/24 08:38:59;;;;;;;6.05;4.47;;;;;;;32.86;nan;-24722.50;4973911;28;20232;-64
2022/07/24 08:41:32;;;;;;;8.07;5.10;;;;;;;33.21;nan;-24732.00;4974994;28;20648;-65
2022/07/24 08:43:58;;;;;;;8.57;5.15;;;;;;;32.95;nan;-24724.97;4973430;28;20591;-65
2022/07/24 08:46:29;;;;;;;6.93;4.55;;;;;;;32.99;nan;-24725.91;4973592;28;20169;-63
2022/07/24 08:48:56;;;;;;;6.63;4.20;;;;;;;33.26;nan;-24733.22;4975821;28;20271;-65
2022/07/24 08:51:22;;;;;;;5.78;4.22;;;;;;;33.06;nan;-24727.94;4977560;28;20278;-64
2022/07/24 08:53:49;;;;;;;7.63;4.55;;;;;;;33.08;nan;-24728.34;4972207;28;20209;-66
2022/07/24 08:56:17;;;;;;;6.72;4.15;;;;;;;33.04;nan;-24727.25;4975263;28;20204;-64
2022/07/24 08:58:42;;;;;;;7.18;4.72;;;;;;;32.15;nan;-24703.53;4973676;28;20196;-64
2022/07/24 09:01:08;;;;;;;8.80;5.32;;;;;;;32.98;nan;-24725.78;4973391;28;20221;-66
2022/07/24 09:03:45;;;;;;;7.28;4.88;;;;;;;33.04;nan;-24727.41;4973527;28;20318;-66
2022/07/24 09:06:12;;;;;;;6.85;4.90;;;;;;;32.94;nan;-24724.69;4975317;28;20564;-64
2022/07/24 09:08:43;;;;;;;7.43;4.70;;;;;;;33.18;nan;-24731.19;4974402;28;20217;-65
2022/07/24 09:11:12;;;;;;;7.25;4.53;;;;;;;33.15;nan;-24730.38;4977254;28;20185;-67
2022/07/24 09:16:24;;;;;;;6.85;4.53;;;;;;;33.18;nan;-24731.19;4973305;28;20191;-64
2022/07/24 09:19:01;;;;;;;8.32;5.28;;;;;;;33.14;nan;-24729.97;4971024;28;20235;-65
2022/07/24 09:21:31;;;;;;;10.27;4.60;;;;;;;33.57;nan;-24741.63;4975910;28;20184;-67
2022/07/24 09:24:02;;;;;;;6.40;4.53;;;;;;;33.85;nan;-24749.06;4974518;28;20195;-64
2022/07/24 09:26:46;;;;;;;8.80;4.93;;;;;;;34.28;nan;-24760.44;4973367;28;20275;-66
2022/07/24 09:29:12;;;;;;;8.57;5.10;;;;;;;33.87;nan;-24749.59;4977380;28;20187;-65
2022/07/24 09:31:53;;;;;;;9.93;5.25;;;;;;;34.16;nan;-24757.31;4975066;28;20294;-65
2022/07/24 09:34:18;;;;;;;8.07;4.95;;;;;;;34.11;nan;-24756.09;4975794;28;20599;-64
2022/07/24 09:37:06;;;;;;;7.80;4.47;;;;;;;34.21;nan;-24758.66;4975488;28;20238;-64
2022/07/24 09:39:36;;;;;;;6.53;4.82;;;;;;;34.01;nan;-24753.41;4976019;28;20224;-63
2022/07/24 09:42:04;;;;;;;7.00;4.50;;;;;;;33.27;nan;-24733.63;4973631;28;20271;-65
2022/07/24 09:44:30;;;;;;;7.30;4.70;;;;;;;26.58;nan;-24553.19;4976879;28;20640;-65
2022/07/24 09:46:59;;;;;;;7.97;4.97;;;;;;;32.29;nan;-24707.31;4977962;28;20181;-65
2022/07/24 09:49:26;;;;;;;8.95;5.57;;;;;;;34.36;nan;-24762.59;4975542;28;20300;-62
2022/07/24 09:52:11;;;;;;;6.68;4.50;;;;;;;34.71;nan;-24771.91;4976432;28;20282;-63
2022/07/24 09:54:47;;;;;;;6.25;4.32;;;;;;;34.57;nan;-24768.41;4974803;28;20183;-67
2022/07/24 09:57:23;;;;;;;7.97;4.68;;;;;;;33.78;nan;-24747.16;4975753;28;20184;-64
2022/07/24 09:59:52;;;;;;;7.53;4.55;;;;;;;34.34;nan;-24762.06;4975481;28;20176;-64
2022/07/24 10:02:20;;;;;;;8.20;5.03;;;;;;;34.32;nan;-24761.63;4973761;28;20176;-63
2022/07/24 10:04:47;;;;;;;6.95;4.55;;;;;;;34.81;nan;-24774.63;4973634;28;20192;-64
2022/07/24 10:07:15;;;;;;;6.00;4.15;;;;;;;34.63;nan;-24769.88;4973699;28;20196;-64
2022/07/24 10:09:43;;;;;;;9.68;5.80;;;;;;;34.74;nan;-24772.84;4974410;28;20177;-62
2022/07/24 10:12:22;;;;;;;8.07;5.03;;;;;;;34.87;nan;-24776.38;4973989;28;20219;-65
2022/07/24 10:14:49;;;;;;;10.80;5.97;;;;;;;35.12;nan;-24782.84;4973428;28;20179;-63
2022/07/24 10:17:16;;;;;;;7.15;4.78;;;;;;;34.88;nan;-24776.50;4972297;28;20165;-64
2022/07/24 10:19:48;;;;;;;9.80;5.35;;;;;;;34.70;nan;-24771.78;4974153;28;20616;-64
2022/07/24 10:22:20;;;;;;;8.55;5.57;;;;;;;34.95;nan;-24778.53;4974144;28;20676;-61
2022/07/24 10:24:57;;;;;;;8.32;5.53;;;;;;;34.69;nan;-24771.38;4977768;28;20212;-63
2022/07/24 10:27:26;;;;;;;12.95;6.40;;;;;;;34.99;nan;-24779.59;4974028;28;20188;-62
2022/07/24 10:29:54;;;;;;;8.25;5.45;;;;;;;34.14;nan;-24756.91;4976653;28;20200;-62
2022/07/24 10:32:23;;;;;;;10.63;6.15;;;;;;;34.60;nan;-24769.22;4976852;28;20266;-65
2022/07/24 10:34:55;;;;;;;9.90;5.40;;;;;;;35.07;nan;-24781.50;4975204;28;20659;-65
2022/07/24 10:37:33;;;;;;;9.35;5.40;;;;;;;35.16;nan;-24784.06;4978998;28;21269;-61
2022/07/24 10:40:03;;;;;;;10.52;5.80;;;;;;;35.18;nan;-24784.47;4975013;28;20224;-64
2022/07/24 10:42:30;;;;;;;6.95;5.32;;;;;;;33.90;nan;-24750.41;4975957;28;20607;-63
2022/07/24 10:45:15;;;;;;;6.18;4.60;;;;;;;34.50;nan;-24766.38;4976008;28;20180;-65
2022/07/24 10:47:41;;;;;;;7.60;5.05;;;;;;;34.40;nan;-24763.66;4974635;28;20173;-64
2022/07/24 10:50:06;;;;;;;8.10;5.05;;;;;;;34.98;nan;-24779.19;4975644;28;20188;-63
2022/07/24 10:52:33;;;;;;;8.02;4.78;;;;;;;34.74;nan;-24772.84;4979402;28;20274;-62
2022/07/24 10:55:21;;;;;;;8.88;4.80;;;;;;;35.19;nan;-24784.75;4976648;28;20173;-63
2022/07/24 10:58:08;;;;;;;9.55;5.00;;;;;;;35.31;nan;-24787.97;4981630;28;20235;-63
2022/07/24 11:00:40;;;;;;;7.22;4.75;;;;;;;35.83;nan;-24802.00;4976300;28;20200;-62
2022/07/24 11:03:16;;;;;;;8.30;5.00;;;;;;;35.91;nan;-24803.88;4981608;28;20195;-62
2022/07/24 11:05:42;;;;;;;9.20;5.10;;;;;;;36.35;nan;-24815.72;4981207;28;20210;-62
2022/07/24 11:08:17;;;;;;;8.88;4.97;;;;;;;36.48;nan;-24819.22;4979201;28;20648;-62
2022/07/24 11:10:50;;;;;;;6.72;4.65;;;;;;;36.25;nan;-24813.03;4976026;28;20271;-63
2022/07/24 11:13:33;;;;;;;8.35;4.75;;;;;;;36.61;nan;-24822.59;4978035;28;20216;-61
2022/07/24 11:16:11;;;;;;;7.32;4.20;;;;;;;36.73;nan;-24825.97;4976088;28;20715;-63
2022/07/24 11:18:59;;;;;;;6.15;4.43;;;;;;;36.48;nan;-24819.09;4975907;28;20172;-63
2022/07/24 11:21:32;;;;;;;6.57;4.43;;;;;;;36.66;nan;-24824.06;4974550;28;20200;-64
2022/07/24 11:24:23;;;;;;;8.18;4.70;;;;;;;36.60;nan;-24822.47;4976185;28;20644;-63
2022/07/24 11:26:53;;;;;;;8.23;4.78;;;;;;;36.61;nan;-24822.72;4976315;28;20605;-61
2022/07/24 11:29:21;;;;;;;7.00;4.75;;;;;;;36.84;nan;-24828.66;4976096;28;20183;-62
2022/07/24 11:31:49;;;;;;;7.82;4.90;;;;;;;36.88;nan;-24829.72;4975943;28;20189;-61
2022/07/24 11:34:14;;;;;;;7.47;4.75;;;;;;;37.05;nan;-24834.28;4975693;28;20199;-64
2022/07/24 11:36:42;;;;;;;7.80;4.63;;;;;;;37.34;nan;-24841.94;4976263;28;20622;-62
2022/07/24 11:39:08;;;;;;;7.85;4.55;;;;;;;37.55;nan;-24847.59;4976341;28;20244;-62
2022/07/24 11:41:47;;;;;;;8.70;5.30;;;;;;;37.21;nan;-24838.47;4977578;28;20589;-62
2022/07/24 11:44:24;;;;;;;7.65;4.88;;;;;;;37.41;nan;-24843.97;4982559;28;20659;-62